Time,TemperatureF,DewpointF,PressureIn,WindDirection,WindDirectionDegrees,WindSpeedMPH,WindSpeedGustMPH,Humidity,HourlyPrecipIn,Conditions,Clouds,dailyrainin,SoftwareType,DateUTC
2013-06-25 00:09:00,55.2,54.6,29.89,NW,315,1.7,-999.0,98,-99.99,,,0.00,Acu-Link.com,2013-06-25 07:09:00,
2013-06-25 00:24:00,54.9,54.3,29.90,ENE,67,0.0,-999.0,98,-99.99,,,0.00,Acu-Link.com,2013-06-25 07:24:00,
2013-06-25 00:39:00,55.0,54.4,29.88,WNW,292,1.1,-999.0,98,-99.99,,,0.00,Acu-Link.com,2013-06-25 07:39:00,
2013-06-25 00:55:00,55.0,54.4,29.88,East,90,0.0,-999.0,98,-99.99,,,0.00,Acu-Link.com,2013-06-25 07:55:00,
2013-06-25 01:14:00,55.4,54.8,29.87,SW,225,0.0,-999.0,98,-99.99,,,0.00,Acu-Link.com,2013-06-25 08:14:00,
2013-06-25 01:30:00,55.0,54.4,29.88,NNW,337,0.0,-999.0,98,-99.99,,,0.00,Acu-Link.com,2013-06-25 08:30:00,
2013-06-25 01:45:00,54.9,54.3,29.88,South,180,0.0,-999.0,98,-99.99,,,0.00,Acu-Link.com,2013-06-25 08:45:00,
2013-06-25 02:00:00,56.5,55.9,29.87,South,180,2.7,-999.0,98,-99.99,,,0.00,Acu-Link.com,2013-06-25 09:00:00,
2013-06-25 02:15:00,56.3,55.7,29.88,ESE,112,0.0,-999.0,98,-99.99,,,0.00,Acu-Link.com,2013-06-25 09:15:00,
2013-06-25 02:30:00,56.5,55.9,29.87,NE,45,0.0,-999.0,98,-99.99,,,0.00,Acu-Link.com,2013-06-25 09:30:00,
2013-06-25 02:45:00,56.5,55.9,29.88,NNW,337,0.0,-999.0,98,-99.99,,,0.00,Acu-Link.com,2013-06-25 09:45:00,
2013-06-25 03:00:00,56.1,55.5,29.89,SSE,157,3.2,-999.0,98,-99.99,,,0.00,Acu-Link.com,2013-06-25 10:00:00,
2013-06-25 03:15:00,56.1,55.5,29.87,SW,225,0.0,-999.0,98,-99.99,,,0.00,Acu-Link.com,2013-06-25 10:15:00,
2013-06-25 03:31:00,57.0,56.4,29.87,WSW,247,0.0,-999.0,98,-99.99,,,0.00,Acu-Link.com,2013-06-25 10:31:00,
2013-06-25 03:46:00,56.1,55.5,29.88,NE,45,0.0,-999.0,98,-99.99,,,0.00,Acu-Link.com,2013-06-25 10:46:00,
2013-06-25 04:01:00,55.8,55.2,29.89,ESE,112,0.0,-999.0,98,-99.99,,,0.00,Acu-Link.com,2013-06-25 11:01:00,
2013-06-25 04:16:00,56.3,55.7,29.91,NNW,337,0.0,-999.0,98,-99.99,,,0.00,Acu-Link.com,2013-06-25 11:16:00,
2013-06-25 04:31:00,55.6,55.0,29.91,NNE,22,0.0,-999.0,98,-99.99,,,0.00,Acu-Link.com,2013-06-25 11:31:00,
2013-06-25 04:46:00,55.0,54.4,29.89,ESE,112,0.0,-999.0,98,-99.99,,,0.00,Acu-Link.com,2013-06-25 11:46:00,
2013-06-25 05:01:00,54.9,54.3,29.90,NNE,22,0.0,-999.0,98,-99.99,,,0.00,Acu-Link.com,2013-06-25 12:01:00,
2013-06-25 05:16:00,54.3,53.7,29.90,East,90,0.0,-999.0,98,-99.99,,,0.00,Acu-Link.com,2013-06-25 12:16:00,
2013-06-25 05:31:00,54.3,53.7,29.90,ENE,67,0.0,-999.0,98,-99.99,,,0.00,Acu-Link.com,2013-06-25 12:31:00,
2013-06-25 05:47:00,54.3,53.7,29.90,NNW,337,0.0,-999.0,98,-99.99,,,0.00,Acu-Link.com,2013-06-25 12:47:00,
2013-06-25 06:02:00,54.3,53.7,29.90,ESE,112,0.0,-999.0,98,-99.99,,,0.00,Acu-Link.com,2013-06-25 13:02:00,
2013-06-25 06:17:00,54.5,53.9,29.91,NE,45,0.0,-999.0,98,-99.99,,,0.00,Acu-Link.com,2013-06-25 13:17:00,
2013-06-25 06:32:00,54.5,53.9,29.91,East,90,0.0,-999.0,98,-99.99,,,0.00,Acu-Link.com,2013-06-25 13:32:00,
2013-06-25 06:47:00,54.5,53.9,29.91,NE,45,0.0,-999.0,98,-99.99,,,0.00,Acu-Link.com,2013-06-25 13:47:00,
2013-06-25 07:02:00,55.0,54.4,29.93,NE,45,0.0,-999.0,98,-99.99,,,0.00,Acu-Link.com,2013-06-25 14:02:00,
2013-06-25 07:17:00,55.8,55.2,29.92,NE,45,0.0,-999.0,98,-99.99,,,0.00,Acu-Link.com,2013-06-25 14:17:00,
2013-06-25 07:32:00,56.8,56.2,29.93,ESE,112,0.0,-999.0,98,-99.99,,,0.00,Acu-Link.com,2013-06-25 14:32:00,
2013-06-25 07:47:00,58.1,57.5,29.94,East,90,0.0,-999.0,98,-99.99,,,0.00,Acu-Link.com,2013-06-25 14:47:00,
2013-06-25 08:03:00,59.7,59.1,29.93,SW,225,1.1,-999.0,98,-99.99,,,0.00,Acu-Link.com,2013-06-25 15:03:00,
2013-06-25 08:18:00,61.7,61.1,29.93,SW,225,0.0,-999.0,98,-99.99,,,0.00,Acu-Link.com,2013-06-25 15:18:00,
2013-06-25 08:33:00,64.0,63.4,29.94,South,180,0.0,-999.0,98,-99.99,,,0.00,Acu-Link.com,2013-06-25 15:33:00,
2013-06-25 08:48:00,65.1,58.8,29.94,NE,45,0.0,-999.0,80,-99.99,,,0.00,Acu-Link.com,2013-06-25 15:48:00,
2013-06-25 09:03:00,67.6,53.2,29.95,WSW,247,0.0,-999.0,60,-99.99,,,0.00,Acu-Link.com,2013-06-25 16:03:00,
2013-06-25 09:18:00,70.9,52.9,29.95,West,270,4.2,-999.0,53,-99.99,,,0.00,Acu-Link.com,2013-06-25 16:18:00,
2013-06-25 09:33:00,72.7,52.4,29.95,SE,135,2.2,-999.0,49,-99.99,,,0.00,Acu-Link.com,2013-06-25 16:33:00,
2013-06-25 09:48:00,75.2,52.4,29.96,South,180,0.0,-999.0,45,-99.99,,,0.00,Acu-Link.com,2013-06-25 16:48:00,
2013-06-25 10:03:00,75.6,51.5,29.97,NW,315,0.0,-999.0,43,-99.99,,,0.00,Acu-Link.com,2013-06-25 17:03:00,
2013-06-25 10:18:00,77.0,51.5,29.97,West,270,0.0,-999.0,41,-99.99,,,0.00,Acu-Link.com,2013-06-25 17:18:00,
2013-06-25 10:34:00,80.2,49.3,29.97,East,90,3.2,-999.0,34,-99.99,,,0.00,Acu-Link.com,2013-06-25 17:34:00,
2013-06-25 10:49:00,83.3,48.6,29.98,NNE,22,0.0,-999.0,30,-99.99,,,0.00,Acu-Link.com,2013-06-25 17:49:00,
2013-06-25 11:04:00,87.1,48.0,29.97,West,270,2.7,-999.0,26,-99.99,,,0.00,Acu-Link.com,2013-06-25 18:04:00,
2013-06-25 11:19:00,87.1,44.8,29.97,NNW,337,2.7,-999.0,23,-99.99,,,0.00,Acu-Link.com,2013-06-25 18:19:00,
2013-06-25 11:34:00,90.1,43.6,29.96,South,180,0.0,-999.0,20,-99.99,,,0.00,Acu-Link.com,2013-06-25 18:34:00,
2013-06-25 11:49:00,91.2,44.5,29.96,WNW,292,0.0,-999.0,20,-99.99,,,0.00,Acu-Link.com,2013-06-25 18:49:00,
2013-06-25 12:04:00,91.4,44.7,29.96,NE,45,3.2,-999.0,20,-99.99,,,0.00,Acu-Link.com,2013-06-25 19:04:00,
2013-06-25 12:19:00,90.1,40.9,29.97,SSE,157,0.0,-999.0,18,-99.99,,,0.00,Acu-Link.com,2013-06-25 19:19:00,
2013-06-25 12:34:00,90.3,42.4,29.98,SW,225,3.2,-999.0,19,-99.99,,,0.00,Acu-Link.com,2013-06-25 19:34:00,
2013-06-25 12:50:00,92.7,39.9,29.96,SW,225,3.7,-999.0,16,-99.99,,,0.00,Acu-Link.com,2013-06-25 19:50:00,
2013-06-25 13:05:00,90.1,42.3,29.97,WNW,292,4.7,-999.0,19,-99.99,,,0.00,Acu-Link.com,2013-06-25 20:05:00,
2013-06-25 13:20:00,92.8,41.5,29.97,West,270,4.2,-999.0,17,-99.99,,,0.00,Acu-Link.com,2013-06-25 20:20:00,
2013-06-25 13:35:00,92.7,38.3,29.96,SW,225,0.0,-999.0,15,-99.99,,,0.00,Acu-Link.com,2013-06-25 20:35:00,
2013-06-25 13:50:00,95.4,36.7,29.97,South,180,3.2,-999.0,13,-99.99,,,0.00,Acu-Link.com,2013-06-25 20:50:00,
2013-06-25 14:05:00,94.3,42.7,29.96,SSW,202,6.3,-999.0,17,-99.99,,,0.00,Acu-Link.com,2013-06-25 21:05:00,
2013-06-25 14:20:00,95.5,42.1,29.98,ESE,112,2.7,-999.0,16,-99.99,,,0.00,Acu-Link.com,2013-06-25 21:20:00,
2013-06-25 14:35:00,91.9,52.1,29.98,NNW,337,4.2,-999.0,26,-99.99,,,0.00,Acu-Link.com,2013-06-25 21:35:00,
2013-06-25 14:51:00,92.3,54.4,29.98,South,180,4.7,-999.0,28,-99.99,,,0.00,Acu-Link.com,2013-06-25 21:51:00,
2013-06-25 15:06:00,92.3,54.4,29.96,WNW,292,2.7,-999.0,28,-99.99,,,0.00,Acu-Link.com,2013-06-25 22:06:00,
2013-06-25 15:21:00,88.3,54.7,29.96,WNW,292,3.7,-999.0,32,-99.99,,,0.00,Acu-Link.com,2013-06-25 22:21:00,
2013-06-25 15:36:00,89.8,54.2,29.96,South,180,1.1,-999.0,30,-99.99,,,0.00,Acu-Link.com,2013-06-25 22:36:00,
2013-06-25 15:51:00,90.3,54.6,29.96,SW,225,2.7,-999.0,30,-99.99,,,0.00,Acu-Link.com,2013-06-25 22:51:00,
2013-06-25 16:06:00,88.9,54.3,29.95,West,270,5.3,-999.0,31,-99.99,,,0.00,Acu-Link.com,2013-06-25 23:06:00,
2013-06-25 16:21:00,87.1,54.5,29.95,South,180,1.7,-999.0,33,-99.99,,,0.00,Acu-Link.com,2013-06-25 23:21:00,
2013-06-25 16:37:00,88.9,55.2,29.96,West,270,1.7,-999.0,32,-99.99,,,0.00,Acu-Link.com,2013-06-25 23:37:00,
2013-06-25 16:52:00,87.6,54.9,29.95,West,270,2.7,-999.0,33,-99.99,,,0.00,Acu-Link.com,2013-06-25 23:52:00,
2013-06-25 17:07:00,86.9,55.1,29.94,SE,135,2.7,-999.0,34,-99.99,,,0.00,Acu-Link.com,2013-06-26 00:07:00,
2013-06-25 17:22:00,85.1,55.9,29.94,West,270,3.7,-999.0,37,-99.99,,,0.00,Acu-Link.com,2013-06-26 00:22:00,
2013-06-25 17:37:00,83.3,57.1,29.93,SSW,202,2.2,-999.0,41,-99.99,,,0.00,Acu-Link.com,2013-06-26 00:37:00,
2013-06-25 17:52:00,81.3,56.6,29.93,West,270,0.0,-999.0,43,-99.99,,,0.00,Acu-Link.com,2013-06-26 00:52:00,
2013-06-25 18:07:00,80.1,58.0,29.93,WSW,247,0.0,-999.0,47,-99.99,,,0.00,Acu-Link.com,2013-06-26 01:07:00,
2013-06-25 18:22:00,77.4,58.9,29.94,West,270,0.0,-999.0,53,-99.99,,,0.00,Acu-Link.com,2013-06-26 01:22:00,
2013-06-25 18:37:00,75.6,59.3,29.94,NNW,337,0.0,-999.0,57,-99.99,,,0.00,Acu-Link.com,2013-06-26 01:37:00,
2013-06-25 18:53:00,75.0,59.7,29.94,South,180,0.0,-999.0,59,-99.99,,,0.00,Acu-Link.com,2013-06-26 01:53:00,
2013-06-25 19:08:00,74.5,59.2,29.94,NNW,337,0.0,-999.0,59,-99.99,,,0.00,Acu-Link.com,2013-06-26 02:08:00,
2013-06-25 19:23:00,72.3,58.1,29.96,NNW,337,0.0,-999.0,61,-99.99,,,0.00,Acu-Link.com,2013-06-26 02:23:00,
2013-06-25 19:38:00,71.1,57.9,29.95,West,270,0.0,-999.0,63,-99.99,,,0.00,Acu-Link.com,2013-06-26 02:38:00,
2013-06-25 19:53:00,69.6,57.7,29.95,SW,225,0.0,-999.0,66,-99.99,,,0.00,Acu-Link.com,2013-06-26 02:53:00,
2013-06-25 20:08:00,68.2,59.6,29.97,NNW,337,0.0,-999.0,74,-99.99,,,0.00,Acu-Link.com,2013-06-26 03:08:00,
2013-06-25 20:23:00,66.7,58.5,29.94,NNW,337,0.0,-999.0,75,-99.99,,,0.00,Acu-Link.com,2013-06-26 03:23:00,
2013-06-25 20:38:00,65.8,59.5,29.95,East,90,0.0,-999.0,80,-99.99,,,0.00,Acu-Link.com,2013-06-26 03:38:00,
2013-06-25 20:53:00,65.1,59.1,29.95,NNE,22,0.0,-999.0,81,-99.99,,,0.00,Acu-Link.com,2013-06-26 03:53:00,
2013-06-25 21:09:00,64.4,59.1,29.95,North,0,0.0,-999.0,83,-99.99,,,0.00,Acu-Link.com,2013-06-26 04:09:00,
2013-06-25 21:24:00,63.7,63.1,29.96,NNE,22,0.0,-999.0,98,-99.99,,,0.00,Acu-Link.com,2013-06-26 04:24:00,
2013-06-25 21:39:00,63.1,62.5,29.97,ENE,67,0.0,-999.0,98,-99.99,,,0.00,Acu-Link.com,2013-06-26 04:39:00,
2013-06-25 21:54:00,62.6,59.0,29.98,NNE,22,0.0,-999.0,88,-99.99,,,0.00,Acu-Link.com,2013-06-26 04:54:00,
2013-06-25 22:09:00,62.1,61.5,29.99,NNE,22,0.0,-999.0,98,-99.99,,,0.00,Acu-Link.com,2013-06-26 05:09:00,
2013-06-25 22:24:00,61.9,61.3,29.98,NNE,22,0.0,-999.0,98,-99.99,,,0.00,Acu-Link.com,2013-06-26 05:24:00,
2013-06-25 22:39:00,61.3,60.7,29.98,ESE,112,0.0,-999.0,98,-99.99,,,0.00,Acu-Link.com,2013-06-26 05:39:00,
2013-06-25 22:54:00,60.6,60.0,29.98,East,90,0.0,-999.0,98,-99.99,,,0.00,Acu-Link.com,2013-06-26 05:54:00,
2013-06-25 23:09:00,60.4,59.8,29.98,SSE,157,0.0,-999.0,98,-99.99,,,0.00,Acu-Link.com,2013-06-26 06:09:00,
2013-06-25 23:24:00,59.5,58.9,29.98,ESE,112,0.0,-999.0,98,-99.99,,,0.00,Acu-Link.com,2013-06-26 06:24:00,
2013-06-25 23:40:00,59.0,58.4,29.98,NE,45,0.0,-999.0,98,-99.99,,,0.00,Acu-Link.com,2013-06-26 06:40:00,
2013-06-25 23:55:00,59.0,58.4,29.98,North,0,0.0,-999.0,98,-99.99,,,0.00,Acu-Link.com,2013-06-26 06:55:00,